sensor_id;sensor_type;location;lat;lon;timestamp;pressure;altitude;pressure_sealevel;temperature;humidity
53900;BME280;40509;32.858;-116.858;2023-02-28T00:01:33;98350.72;;;17.04;43.77
53900;BME280;40509;32.858;-116.858;2023-02-28T00:04:00;98356.75;;;17.05;43.77
53900;BME280;40509;32.858;-116.858;2023-02-28T00:06:28;98356.63;;;17.06;43.72
53900;BME280;40509;32.858;-116.858;2023-02-28T00:08:55;98352.25;;;17.07;43.78
53900;BME280;40509;32.858;-116.858;2023-02-28T00:11:22;98352.25;;;17.07;43.95
53900;BME280;40509;32.858;-116.858;2023-02-28T00:13:50;98356.50;;;17.08;43.85
53900;BME280;40509;32.858;-116.858;2023-02-28T00:16:22;98359.84;;;17.10;43.76
53900;BME280;40509;32.858;-116.858;2023-02-28T00:18:49;98359.97;;;17.08;43.88
53900;BME280;40509;32.858;-116.858;2023-02-28T00:21:19;98366.00;;;17.09;43.77
53900;BME280;40509;32.858;-116.858;2023-02-28T00:23:47;98358.31;;;17.07;43.97
53900;BME280;40509;32.858;-116.858;2023-02-28T00:26:14;98353.91;;;17.08;43.84
53900;BME280;40509;32.858;-116.858;2023-02-28T00:28:45;98348.69;;;17.08;44.04
53900;BME280;40509;32.858;-116.858;2023-02-28T00:31:12;98349.66;;;17.07;43.91
53900;BME280;40509;32.858;-116.858;2023-02-28T00:33:40;98353.91;;;17.08;43.89
53900;BME280;40509;32.858;-116.858;2023-02-28T00:36:09;98350.47;;;17.07;43.84
53900;BME280;40509;32.858;-116.858;2023-02-28T00:38:38;98347.03;;;17.07;44.01
53900;BME280;40509;32.858;-116.858;2023-02-28T00:41:06;98352.25;;;17.07;44.06
53900;BME280;40509;32.858;-116.858;2023-02-28T00:43:35;98347.88;;;17.07;43.99
53900;BME280;40509;32.858;-116.858;2023-02-28T00:46:04;98349.78;;;17.05;44.20
53900;BME280;40509;32.858;-116.858;2023-02-28T00:48:32;98343.69;;;17.05;44.12
53900;BME280;40509;32.858;-116.858;2023-02-28T00:51:00;98359.13;;;17.08;43.95
53900;BME280;40509;32.858;-116.858;2023-02-28T00:53:28;98358.41;;;17.06;44.03
53900;BME280;40509;32.858;-116.858;2023-02-28T00:55:57;98351.41;;;17.06;43.98
53900;BME280;40509;32.858;-116.858;2023-02-28T00:58:26;98360.09;;;17.07;44.05
53900;BME280;40509;32.858;-116.858;2023-02-28T01:00:54;98362.69;;;17.07;44.11
53900;BME280;40509;32.858;-116.858;2023-02-28T01:03:23;98358.41;;;17.06;44.00
53900;BME280;40509;32.858;-116.858;2023-02-28T01:05:51;98366.25;;;17.06;44.11
53900;BME280;40509;32.858;-116.858;2023-02-28T01:08:19;98373.25;;;17.05;44.21
53900;BME280;40509;32.858;-116.858;2023-02-28T01:10:47;98380.09;;;17.06;44.26
53900;BME280;40509;32.858;-116.858;2023-02-28T01:13:15;98374.88;;;17.06;44.20
53900;BME280;40509;32.858;-116.858;2023-02-28T01:15:51;98381.88;;;17.06;44.12
53900;BME280;40509;32.858;-116.858;2023-02-28T01:18:20;98379.41;;;17.04;44.15
53900;BME280;40509;32.858;-116.858;2023-02-28T01:20:48;98376.91;;;17.02;44.34
53900;BME280;40509;32.858;-116.858;2023-02-28T01:23:16;98384.72;;;17.02;44.39
53900;BME280;40509;32.858;-116.858;2023-02-28T01:25:43;98379.50;;;17.02;44.34
53900;BME280;40509;32.858;-116.858;2023-02-28T01:28:11;98375.22;;;17.01;44.20
53900;BME280;40509;32.858;-116.858;2023-02-28T01:30:38;98380.44;;;17.01;44.49
53900;BME280;40509;32.858;-116.858;2023-02-28T01:33:06;98385.03;;;16.98;44.42
53900;BME280;40509;32.858;-116.858;2023-02-28T01:35:35;98375.34;;;17.00;44.37
53900;BME280;40509;32.858;-116.858;2023-02-28T01:38:02;98376.28;;;16.99;44.55
53900;BME280;40509;32.858;-116.858;2023-02-28T01:40:30;98380.69;;;16.98;44.53
53900;BME280;40509;32.858;-116.858;2023-02-28T01:42:57;98385.97;;;16.97;44.60
53900;BME280;40509;32.858;-116.858;2023-02-28T01:45:28;98388.59;;;16.97;44.56
53900;BME280;40509;32.858;-116.858;2023-02-28T01:48:02;98393.81;;;16.97;44.61
53900;BME280;40509;32.858;-116.858;2023-02-28T01:50:36;98398.06;;;16.98;44.60
53900;BME280;40509;32.858;-116.858;2023-02-28T01:53:07;98399.00;;;16.97;44.63
53900;BME280;40509;32.858;-116.858;2023-02-28T01:55:36;98398.06;;;16.98;44.56
53900;BME280;40509;32.858;-116.858;2023-02-28T01:58:06;98393.81;;;16.97;44.61
53900;BME280;40509;32.858;-116.858;2023-02-28T02:00:35;98391.31;;;16.95;44.69
53900;BME280;40509;32.858;-116.858;2023-02-28T02:03:08;98400.81;;;16.96;44.50
53900;BME280;40509;32.858;-116.858;2023-02-28T02:05:39;98397.38;;;16.96;44.54
53900;BME280;40509;32.858;-116.858;2023-02-28T02:08:12;98399.97;;;16.96;44.61
53900;BME280;40509;32.858;-116.858;2023-02-28T02:10:46;98393.81;;;16.97;44.61
53900;BME280;40509;32.858;-116.858;2023-02-28T02:13:29;98389.75;;;16.93;44.65
53900;BME280;40509;32.858;-116.858;2023-02-28T02:24:49;98390.59;;;16.93;44.80
53900;BME280;40509;32.858;-116.858;2023-02-28T02:33:18;98393.44;;;16.90;44.98
53900;BME280;40509;32.858;-116.858;2023-02-28T02:44:02;98383.38;;;18.60;41.61
53900;BME280;40509;32.858;-116.858;2023-02-28T02:46:43;98387.75;;;18.94;41.04
53900;BME280;40509;32.858;-116.858;2023-02-28T02:49:28;98380.31;;;19.10;40.67
53900;BME280;40509;32.858;-116.858;2023-02-28T02:52:11;98393.88;;;19.36;40.35
53900;BME280;40509;32.858;-116.858;2023-02-28T02:54:43;98392.38;;;19.55;40.23
53900;BME280;40509;32.858;-116.858;2023-02-28T02:57:22;98397.09;;;19.61;40.37
53900;BME280;40509;32.858;-116.858;2023-02-28T02:59:53;98395.06;;;19.65;40.07
53900;BME280;40509;32.858;-116.858;2023-02-28T03:02:23;98393.53;;;19.62;40.37
53900;BME280;40509;32.858;-116.858;2023-02-28T03:04:56;98402.53;;;19.69;40.39
53900;BME280;40509;32.858;-116.858;2023-02-28T03:07:29;98404.59;;;19.66;40.12
53900;BME280;40509;32.858;-116.858;2023-02-28T03:09:57;98395.25;;;19.73;40.36
53900;BME280;40509;32.858;-116.858;2023-02-28T03:12:39;98397.47;;;19.78;40.25
53900;BME280;40509;32.858;-116.858;2023-02-28T03:15:21;98389.31;;;20.13;39.75
53900;BME280;40509;32.858;-116.858;2023-02-28T03:20:34;98373.41;;;20.05;39.97
53900;BME280;40509;32.858;-116.858;2023-02-28T03:25:53;98368.34;;;20.13;39.87
53900;BME280;40509;32.858;-116.858;2023-02-28T03:28:40;98382.13;;;20.46;39.27
53900;BME280;40509;32.858;-116.858;2023-02-28T03:31:16;98378.38;;;20.39;39.87
53900;BME280;40509;32.858;-116.858;2023-02-28T03:34:15;98382.53;;;20.42;39.99
53900;BME280;40509;32.858;-116.858;2023-02-28T03:36:52;98386.31;;;20.59;39.80
53900;BME280;40509;32.858;-116.858;2023-02-28T03:39:27;98386.47;;;20.67;39.54
53900;BME280;40509;32.858;-116.858;2023-02-28T03:42:01;98393.50;;;20.66;39.76
53900;BME280;40509;32.858;-116.858;2023-02-28T03:44:57;98398.13;;;20.43;40.50
53900;BME280;40509;32.858;-116.858;2023-02-28T03:47:57;98390.94;;;20.76;40.09
53900;BME280;40509;32.858;-116.858;2023-02-28T03:50:32;98401.84;;;20.71;40.10
53900;BME280;40509;32.858;-116.858;2023-02-28T03:53:13;98397.25;;;20.33;41.09
53900;BME280;40509;32.858;-116.858;2023-02-28T03:55:49;98394.16;;;19.76;42.08
53900;BME280;40509;32.858;-116.858;2023-02-28T04:00:55;98395.81;;;19.34;43.58
53900;BME280;40509;32.858;-116.858;2023-02-28T04:03:24;98407.84;;;19.26;43.37
53900;BME280;40509;32.858;-116.858;2023-02-28T04:05:54;98408.47;;;19.18;43.40
53900;BME280;40509;32.858;-116.858;2023-02-28T04:08:22;98412.41;;;19.12;43.43
53900;BME280;40509;32.858;-116.858;2023-02-28T04:11:04;98409.31;;;19.07;43.46
53900;BME280;40509;32.858;-116.858;2023-02-28T04:13:32;98408.03;;;19.01;43.75
53900;BME280;40509;32.858;-116.858;2023-02-28T04:15:59;98406.75;;;18.96;44.05
53900;BME280;40509;32.858;-116.858;2023-02-28T04:18:26;98399.50;;;18.88;44.00
53900;BME280;40509;32.858;-116.858;2023-02-28T04:20:54;98398.91;;;18.84;44.42
53900;BME280;40509;32.858;-116.858;2023-02-28T04:23:21;98399.38;;;18.78;44.55
53900;BME280;40509;32.858;-116.858;2023-02-28T04:25:48;98391.06;;;18.73;45.08
53900;BME280;40509;32.858;-116.858;2023-02-28T04:28:17;98399.28;;;18.68;45.86
53900;BME280;40509;32.858;-116.858;2023-02-28T04:30:44;98402.84;;;18.67;45.89
53900;BME280;40509;32.858;-116.858;2023-02-28T04:33:12;98401.78;;;18.70;45.01
53900;BME280;40509;32.858;-116.858;2023-02-28T04:35:39;98401.09;;;18.68;44.79
53900;BME280;40509;32.858;-116.858;2023-02-28T04:38:07;98401.19;;;18.66;45.09
53900;BME280;40509;32.858;-116.858;2023-02-28T04:40:35;98404.03;;;18.63;45.22
53900;BME280;40509;32.858;-116.858;2023-02-28T04:43:02;98404.03;;;18.63;45.19
53900;BME280;40509;32.858;-116.858;2023-02-28T04:45:30;98400.00;;;18.59;45.35
53900;BME280;40509;32.858;-116.858;2023-02-28T04:47:59;98405.38;;;18.58;45.55
53900;BME280;40509;32.858;-116.858;2023-02-28T04:50:27;98406.44;;;18.55;45.54
53900;BME280;40509;32.858;-116.858;2023-02-28T04:52:54;98401.31;;;18.53;45.46
53900;BME280;40509;32.858;-116.858;2023-02-28T04:55:24;98406.81;;;18.50;45.50
53900;BME280;40509;32.858;-116.858;2023-02-28T04:57:51;98404.31;;;18.49;45.02
53900;BME280;40509;32.858;-116.858;2023-02-28T05:00:19;98410.59;;;18.46;45.69
53900;BME280;40509;32.858;-116.858;2023-02-28T05:02:46;98405.84;;;18.40;45.56
53900;BME280;40509;32.858;-116.858;2023-02-28T05:05:13;98404.41;;;18.36;45.78
53900;BME280;40509;32.858;-116.858;2023-02-28T05:07:44;98399.44;;;18.33;45.67
53900;BME280;40509;32.858;-116.858;2023-02-28T05:10:12;98404.88;;;18.30;45.99
53900;BME280;40509;32.858;-116.858;2023-02-28T05:12:39;98407.63;;;18.28;45.88
53900;BME280;40509;32.858;-116.858;2023-02-28T05:15:07;98410.34;;;18.27;45.94
53900;BME280;40509;32.858;-116.858;2023-02-28T05:17:38;98407.75;;;18.27;45.91
53900;BME280;40509;32.858;-116.858;2023-02-28T05:20:06;98410.22;;;18.28;45.45
53900;BME280;40509;32.858;-116.858;2023-02-28T05:22:35;98413.56;;;18.30;45.07
53900;BME280;40509;32.858;-116.858;2023-02-28T05:25:03;98412.97;;;18.27;45.34
53900;BME280;40509;32.858;-116.858;2023-02-28T05:27:31;98407.75;;;18.27;45.29
53900;BME280;40509;32.858;-116.858;2023-02-28T05:29:59;98410.47;;;18.25;45.40
53900;BME280;40509;32.858;-116.858;2023-02-28T05:32:30;98415.81;;;18.24;45.65
53900;BME280;40509;32.858;-116.858;2023-02-28T05:34:57;98425.53;;;18.22;45.46
53900;BME280;40509;32.858;-116.858;2023-02-28T05:37:24;98424.84;;;18.19;45.01
53900;BME280;40509;32.858;-116.858;2023-02-28T05:39:52;98433.63;;;18.18;45.66
53900;BME280;40509;32.858;-116.858;2023-02-28T05:42:19;98430.31;;;18.16;45.37
53900;BME280;40509;32.858;-116.858;2023-02-28T05:44:46;98428.66;;;18.15;45.26
53900;BME280;40509;32.858;-116.858;2023-02-28T05:47:13;98433.03;;;18.15;45.66
53900;BME280;40509;32.858;-116.858;2023-02-28T05:49:42;98437.78;;;18.10;45.81
53900;BME280;40509;32.858;-116.858;2023-02-28T05:52:09;98435.38;;;18.07;45.90
53900;BME280;40509;32.858;-116.858;2023-02-28T05:54:37;98435.63;;;18.03;46.10
53900;BME280;40509;32.858;-116.858;2023-02-28T05:57:04;98436.69;;;18.01;46.13
53900;BME280;40509;32.858;-116.858;2023-02-28T05:59:31;98443.81;;;17.99;46.10
53900;BME280;40509;32.858;-116.858;2023-02-28T06:01:59;98433.50;;;17.97;46.23
53900;BME280;40509;32.858;-116.858;2023-02-28T06:04:26;98434.44;;;17.96;46.14
53900;BME280;40509;32.858;-116.858;2023-02-28T06:06:53;98430.16;;;17.95;46.09
53900;BME280;40509;32.858;-116.858;2023-02-28T06:09:21;98438.00;;;17.95;45.72
53900;BME280;40509;32.858;-116.858;2023-02-28T06:11:48;98441.22;;;17.99;45.75
53900;BME280;40509;32.858;-116.858;2023-02-28T06:14:18;98443.81;;;17.99;45.61
53900;BME280;40509;32.858;-116.858;2023-02-28T06:16:46;98447.38;;;17.98;45.78
53900;BME280;40509;32.858;-116.858;2023-02-28T06:19:14;98452.38;;;18.01;45.70
53900;BME280;40509;32.858;-116.858;2023-02-28T06:21:42;98448.81;;;18.02;45.71
53900;BME280;40509;32.858;-116.858;2023-02-28T06:24:09;98453.22;;;18.01;45.53
53900;BME280;40509;32.858;-116.858;2023-02-28T06:26:37;98448.31;;;17.97;45.79
53900;BME280;40509;32.858;-116.858;2023-02-28T06:29:04;98447.50;;;17.96;45.79
53900;BME280;40509;32.858;-116.858;2023-02-28T06:31:32;98444.03;;;17.96;45.64
53900;BME280;40509;32.858;-116.858;2023-02-28T06:33:59;98442.47;;;17.93;45.55
53900;BME280;40509;32.858;-116.858;2023-02-28T06:36:26;98437.38;;;17.92;45.74
53900;BME280;40509;32.858;-116.858;2023-02-28T06:38:54;98435.72;;;17.91;45.17
53900;BME280;40509;32.858;-116.858;2023-02-28T06:41:26;98436.16;;;17.84;45.83
53900;BME280;40509;32.858;-116.858;2023-02-28T06:43:54;98427.81;;;17.79;46.01
53900;BME280;40509;32.858;-116.858;2023-02-28T06:46:21;98428.88;;;17.77;46.20
53900;BME280;40509;32.858;-116.858;2023-02-28T06:48:49;98437.69;;;17.76;46.20
53900;BME280;40509;32.858;-116.858;2023-02-28T06:51:19;98436.13;;;17.73;46.19
53900;BME280;40509;32.858;-116.858;2023-02-28T06:53:51;98433.72;;;17.70;46.13
53900;BME280;40509;32.858;-116.858;2023-02-28T06:56:19;98441.56;;;17.70;46.18
53900;BME280;40509;32.858;-116.858;2023-02-28T06:58:50;98445.97;;;17.69;46.06
53900;BME280;40509;32.858;-116.858;2023-02-28T07:01:20;98439.69;;;17.72;46.02
53900;BME280;40509;32.858;-116.858;2023-02-28T07:03:50;98447.28;;;17.75;45.87
53900;BME280;40509;32.858;-116.858;2023-02-28T07:06:20;98449.19;;;17.73;45.80
53900;BME280;40509;32.858;-116.858;2023-02-28T07:08:50;98440.50;;;17.73;45.75
53900;BME280;40509;32.858;-116.858;2023-02-28T07:11:20;98450.13;;;17.72;45.86
53900;BME280;40509;32.858;-116.858;2023-02-28T07:13:49;98444.16;;;17.70;45.97
53900;BME280;40509;32.858;-116.858;2023-02-28T07:16:17;98456.28;;;17.71;45.91
53900;BME280;40509;32.858;-116.858;2023-02-28T07:18:45;98448.56;;;17.69;45.80
53900;BME280;40509;32.858;-116.858;2023-02-28T07:21:12;98454.03;;;17.66;45.94
53900;BME280;40509;32.858;-116.858;2023-02-28T07:23:40;98451.41;;;17.66;45.62
53900;BME280;40509;32.858;-116.858;2023-02-28T07:26:12;98445.34;;;17.66;45.73
53900;BME280;40509;32.858;-116.858;2023-02-28T07:28:42;98449.63;;;17.67;45.49
53900;BME280;40509;32.858;-116.858;2023-02-28T07:31:10;98455.31;;;17.61;46.08
53900;BME280;40509;32.858;-116.858;2023-02-28T07:33:37;98446.75;;;17.59;46.25
53900;BME280;40509;32.858;-116.858;2023-02-28T07:36:11;98442.59;;;17.56;46.22
53900;BME280;40509;32.858;-116.858;2023-02-28T07:38:43;98434.25;;;17.51;46.41
53900;BME280;40509;32.858;-116.858;2023-02-28T07:41:11;98434.50;;;17.48;46.34
53900;BME280;40509;32.858;-116.858;2023-02-28T07:43:39;98428.66;;;17.44;45.94
53900;BME280;40509;32.858;-116.858;2023-02-28T07:46:11;98431.19;;;17.46;46.13
53900;BME280;40509;32.858;-116.858;2023-02-28T07:48:42;98431.25;;;17.44;46.48
53900;BME280;40509;32.858;-116.858;2023-02-28T07:51:10;98427.81;;;17.44;46.35
53900;BME280;40509;32.858;-116.858;2023-02-28T07:53:37;98425.34;;;17.42;46.23
53900;BME280;40509;32.858;-116.858;2023-02-28T07:56:05;98422.06;;;17.51;45.56
53900;BME280;40509;32.858;-116.858;2023-02-28T07:58:33;98424.88;;;17.48;45.81
53900;BME280;40509;32.858;-116.858;2023-02-28T08:01:10;98416.09;;;17.49;45.65
53900;BME280;40509;32.858;-116.858;2023-02-28T08:03:38;98408.50;;;17.46;45.74
53900;BME280;40509;32.858;-116.858;2023-02-28T08:06:08;98408.63;;;17.45;45.91
53900;BME280;40509;32.858;-116.858;2023-02-28T08:08:41;98403.41;;;17.45;45.92
53900;BME280;40509;32.858;-116.858;2023-02-28T08:11:08;98406.94;;;17.44;45.67
53900;BME280;40509;32.858;-116.858;2023-02-28T08:13:35;98395.56;;;17.45;45.47
53900;BME280;40509;32.858;-116.858;2023-02-28T08:16:03;98390.47;;;17.43;45.62
53900;BME280;40509;32.858;-116.858;2023-02-28T08:18:30;98392.59;;;17.38;45.82
53900;BME280;40509;32.858;-116.858;2023-02-28T08:20:57;98383.81;;;17.39;45.53
53900;BME280;40509;32.858;-116.858;2023-02-28T08:23:25;98385.47;;;17.40;45.83
53900;BME280;40509;32.858;-116.858;2023-02-28T08:25:54;98383.09;;;17.37;45.83
53900;BME280;40509;32.858;-116.858;2023-02-28T08:28:22;98379.84;;;17.33;46.06
53900;BME280;40509;32.858;-116.858;2023-02-28T08:30:50;98378.22;;;17.32;46.16
53900;BME280;40509;32.858;-116.858;2023-02-28T08:33:17;98374.88;;;17.30;46.27
53900;BME280;40509;32.858;-116.858;2023-02-28T08:35:44;98376.88;;;17.27;46.09
53900;BME280;40509;32.858;-116.858;2023-02-28T08:38:11;98379.28;;;17.30;46.07
53900;BME280;40509;32.858;-116.858;2023-02-28T08:40:38;98374.06;;;17.30;45.86
53900;BME280;40509;32.858;-116.858;2023-02-28T08:43:05;98371.56;;;17.28;45.93
53900;BME280;40509;32.858;-116.858;2023-02-28T08:45:33;98377.09;;;17.24;45.98
53900;BME280;40509;32.858;-116.858;2023-02-28T08:48:00;98375.81;;;17.29;45.88
53900;BME280;40509;32.858;-116.858;2023-02-28T08:50:27;98363.00;;;17.26;45.83
53900;BME280;40509;32.858;-116.858;2023-02-28T08:52:54;98369.16;;;17.25;45.92
53900;BME280;40509;32.858;-116.858;2023-02-28T08:55:21;98367.50;;;17.24;45.88
53900;BME280;40509;32.858;-116.858;2023-02-28T08:57:49;98378.66;;;17.26;46.04
53900;BME280;40509;32.858;-116.858;2023-02-28T09:00:16;98365.00;;;17.23;45.78
53900;BME280;40509;32.858;-116.858;2023-02-28T09:02:44;98366.66;;;17.24;45.81
53900;BME280;40509;32.858;-116.858;2023-02-28T09:05:11;98367.59;;;17.23;46.03
53900;BME280;40509;32.858;-116.858;2023-02-28T09:07:38;98366.06;;;17.20;45.98
53900;BME280;40509;32.858;-116.858;2023-02-28T09:10:06;98374.00;;;17.18;46.06
53900;BME280;40509;32.858;-116.858;2023-02-28T09:12:34;98365.09;;;17.21;45.97
53900;BME280;40509;32.858;-116.858;2023-02-28T09:15:03;98363.34;;;17.22;46.09
53900;BME280;40509;32.858;-116.858;2023-02-28T09:17:30;98363.56;;;17.18;45.91
53900;BME280;40509;32.858;-116.858;2023-02-28T09:19:57;98356.56;;;17.19;45.86
53900;BME280;40509;32.858;-116.858;2023-02-28T09:22:25;98358.34;;;17.18;46.00
53900;BME280;40509;32.858;-116.858;2023-02-28T09:24:52;98354.91;;;17.18;46.01
53900;BME280;40509;32.858;-116.858;2023-02-28T09:27:19;98346.59;;;17.13;46.39
53900;BME280;40509;32.858;-116.858;2023-02-28T09:29:46;98350.25;;;17.10;46.35
53900;BME280;40509;32.858;-116.858;2023-02-28T09:32:14;98347.03;;;17.07;46.08
53900;BME280;40509;32.858;-116.858;2023-02-28T09:34:42;98341.94;;;17.05;46.15
53900;BME280;40509;32.858;-116.858;2023-02-28T09:37:09;98341.94;;;17.05;46.15
53900;BME280;40509;32.858;-116.858;2023-02-28T09:39:36;98333.16;;;17.06;45.97
53900;BME280;40509;32.858;-116.858;2023-02-28T09:42:04;98327.13;;;17.06;46.10
53900;BME280;40509;32.858;-116.858;2023-02-28T09:44:43;98324.94;;;16.99;46.25
53900;BME280;40509;32.858;-116.858;2023-02-28T09:49:53;98310.16;;;17.00;46.08
53900;BME280;40509;32.858;-116.858;2023-02-28T09:52:30;98303.75;;;17.04;46.15
53900;BME280;40509;32.858;-116.858;2023-02-28T09:57:50;98301.16;;;17.04;45.97
53900;BME280;40509;32.858;-116.858;2023-02-28T10:00:22;98301.75;;;17.08;46.03
53900;BME280;40509;32.858;-116.858;2023-02-28T10:03:12;98296.06;;;17.02;46.24
53900;BME280;40509;32.858;-116.858;2023-02-28T10:11:29;98291.16;;;16.98;46.35
53900;BME280;40509;32.858;-116.858;2023-02-28T10:20:02;98285.13;;;16.97;46.09
53900;BME280;40509;32.858;-116.858;2023-02-28T10:22:44;98279.06;;;16.97;46.31
53900;BME280;40509;32.858;-116.858;2023-02-28T10:25:35;98271.59;;;16.92;46.31
53900;BME280;40509;32.858;-116.858;2023-02-28T10:28:13;98270.13;;;16.88;46.19
53900;BME280;40509;32.858;-116.858;2023-02-28T10:30:49;98265.13;;;16.85;46.13
53900;BME280;40509;32.858;-116.858;2023-02-28T10:33:32;98264.09;;;16.88;45.95
53900;BME280;40509;32.858;-116.858;2023-02-28T10:36:03;98257.63;;;16.80;46.32
53900;BME280;40509;32.858;-116.858;2023-02-28T10:38:36;98261.47;;;16.88;46.07
53900;BME280;40509;32.858;-116.858;2023-02-28T10:41:10;98253.97;;;16.83;46.02
53900;BME280;40509;32.858;-116.858;2023-02-28T10:43:39;98263.69;;;16.81;46.20
53900;BME280;40509;32.858;-116.858;2023-02-28T10:51:11;98265.13;;;16.85;46.14
53900;BME280;40509;32.858;-116.858;2023-02-28T10:53:49;98266.78;;;16.86;46.07
53900;BME280;40509;32.858;-116.858;2023-02-28T10:56:22;98267.88;;;16.83;46.24
53900;BME280;40509;32.858;-116.858;2023-02-28T10:59:29;98278.28;;;16.83;46.32
53900;BME280;40509;32.858;-116.858;2023-02-28T11:02:30;98267.88;;;16.83;46.19
53900;BME280;40509;32.858;-116.858;2023-02-28T11:04:57;98275.78;;;16.82;46.24
53900;BME280;40509;32.858;-116.858;2023-02-28T11:07:28;98275.19;;;16.78;46.32
53900;BME280;40509;32.858;-116.858;2023-02-28T11:09:57;98271.28;;;16.84;46.12
53900;BME280;40509;32.858;-116.858;2023-02-28T11:12:36;98273.28;;;16.80;46.22
53900;BME280;40509;32.858;-116.858;2023-02-28T11:15:32;98261.91;;;16.81;46.32
53900;BME280;40509;32.858;-116.858;2023-02-28T11:20:32;98269.13;;;16.78;46.13
53900;BME280;40509;32.858;-116.858;2023-02-28T11:23:02;98273.63;;;16.76;46.10
53900;BME280;40509;32.858;-116.858;2023-02-28T11:25:33;98268.53;;;16.74;46.10
53900;BME280;40509;32.858;-116.858;2023-02-28T11:28:05;98265.41;;;16.69;45.93
53900;BME280;40509;32.858;-116.858;2023-02-28T11:30:41;98264.38;;;16.72;45.83
53900;BME280;40509;32.858;-116.858;2023-02-28T11:33:31;98256.66;;;16.70;46.16
53900;BME280;40509;32.858;-116.858;2023-02-28T11:36:03;98262.06;;;16.67;46.05
53900;BME280;40509;32.858;-116.858;2023-02-28T11:38:34;98259.47;;;16.67;46.06
53900;BME280;40509;32.858;-116.858;2023-02-28T11:41:13;98256.88;;;16.67;46.04
53900;BME280;40509;32.858;-116.858;2023-02-28T11:46:49;98249.16;;;16.65;45.90
53900;BME280;40509;32.858;-116.858;2023-02-28T11:52:24;98256.16;;;16.65;46.17
53900;BME280;40509;32.858;-116.858;2023-02-28T12:03:58;98223.09;;;16.65;45.94
53900;BME280;40509;32.858;-116.858;2023-02-28T12:06:49;98229.34;;;16.63;46.03
53900;BME280;40509;32.858;-116.858;2023-02-28T12:09:28;98218.00;;;16.64;45.91
53900;BME280;40509;32.858;-116.858;2023-02-28T12:21:01;98216.69;;;16.58;45.81
53900;BME280;40509;32.858;-116.858;2023-02-28T12:23:49;98217.72;;;16.56;46.08
53900;BME280;40509;32.858;-116.858;2023-02-28T12:26:39;98226.50;;;16.55;45.88
53900;BME280;40509;32.858;-116.858;2023-02-28T12:29:28;98221.50;;;16.51;46.07
53900;BME280;40509;32.858;-116.858;2023-02-28T12:32:09;98233.59;;;16.52;45.94
53900;BME280;40509;32.858;-116.858;2023-02-28T12:34:43;98240.47;;;16.54;45.88
53900;BME280;40509;32.858;-116.858;2023-02-28T12:37:25;98250.16;;;16.51;45.96
53900;BME280;40509;32.858;-116.858;2023-02-28T12:40:03;98246.13;;;16.47;45.92
53900;BME280;40509;32.858;-116.858;2023-02-28T12:43:01;98247.16;;;16.45;46.12
53900;BME280;40509;32.858;-116.858;2023-02-28T12:48:14;98241.66;;;16.49;45.93
53900;BME280;40509;32.858;-116.858;2023-02-28T12:50:43;98240.56;;;16.52;45.93
53900;BME280;40509;32.858;-116.858;2023-02-28T12:53:37;98240.69;;;16.50;45.74
53900;BME280;40509;32.858;-116.858;2023-02-28T12:56:15;98244.34;;;16.48;46.06
53900;BME280;40509;32.858;-116.858;2023-02-28T12:58:51;98242.91;;;16.44;46.09
53900;BME280;40509;32.858;-116.858;2023-02-28T13:07:49;98241.47;;;16.40;46.15
53900;BME280;40509;32.858;-116.858;2023-02-28T13:10:00;98238.84;;;16.40;46.25
53900;BME280;40509;32.858;-116.858;2023-02-28T13:12:29;98237.41;;;16.35;46.14
53900;BME280;40509;32.858;-116.858;2023-02-28T13:15:18;98229.72;;;16.34;46.11
53900;BME280;40509;32.858;-116.858;2023-02-28T13:17:53;98229.72;;;16.34;46.07
53900;BME280;40509;32.858;-116.858;2023-02-28T13:20:34;98224.28;;;16.37;46.00
53900;BME280;40509;32.858;-116.858;2023-02-28T13:23:02;98230.31;;;16.38;45.97
53900;BME280;40509;32.858;-116.858;2023-02-28T13:28:03;98222.00;;;16.32;46.06
53900;BME280;40509;32.858;-116.858;2023-02-28T13:33:35;98223.88;;;16.30;46.18
53900;BME280;40509;32.858;-116.858;2023-02-28T13:38:46;98222.00;;;16.32;46.07
53900;BME280;40509;32.858;-116.858;2023-02-28T13:44:07;98222.44;;;16.26;46.26
53900;BME280;40509;32.858;-116.858;2023-02-28T13:57:51;98231.09;;;16.27;46.13
53900;BME280;40509;32.858;-116.858;2023-02-28T14:11:38;98230.53;;;16.34;45.86
53900;BME280;40509;32.858;-116.858;2023-02-28T14:14:07;98232.09;;;16.37;45.62
53900;BME280;40509;32.858;-116.858;2023-02-28T14:16:46;98237.75;;;16.31;45.81
53900;BME280;40509;32.858;-116.858;2023-02-28T14:19:22;98236.34;;;16.38;45.68
53900;BME280;40509;32.858;-116.858;2023-02-28T14:22:04;98247.44;;;16.29;45.85
53900;BME280;40509;32.858;-116.858;2023-02-28T14:35:18;98245.47;;;16.19;46.02
53900;BME280;40509;32.858;-116.858;2023-02-28T14:37:47;98242.88;;;16.19;45.90
53900;BME280;40509;32.858;-116.858;2023-02-28T14:40:20;98239.69;;;16.16;46.05
53900;BME280;40509;32.858;-116.858;2023-02-28T14:42:56;98241.13;;;16.20;45.80
53900;BME280;40509;32.858;-116.858;2023-02-28T14:45:23;98232.47;;;16.19;46.06
53900;BME280;40509;32.858;-116.858;2023-02-28T14:47:51;98226.94;;;16.24;45.66
53900;BME280;40509;32.858;-116.858;2023-02-28T14:50:24;98227.69;;;16.13;46.00
53900;BME280;40509;32.858;-116.858;2023-02-28T14:52:54;98229.38;;;16.14;45.99
53900;BME280;40509;32.858;-116.858;2023-02-28T14:55:28;98234.59;;;16.14;45.81
53900;BME280;40509;32.858;-116.858;2023-02-28T14:58:06;98226.44;;;16.19;45.86
53900;BME280;40509;32.858;-116.858;2023-02-28T15:00:48;98221.75;;;16.11;45.89
53900;BME280;40509;32.858;-116.858;2023-02-28T15:03:43;98222.50;;;16.13;45.82
53900;BME280;40509;32.858;-116.858;2023-02-28T15:06:16;98218.22;;;16.12;46.06